^^
TXWeather Station Historical Data
Daily Summary for September 21, 2021 Units:  Metric    English   Both
Daily Weekly Monthly Yearly Custom
  High: Low: Average:
Temperature: 35.6 °C 25 °C 29.6 °C
Dew Point: 26.7 °C 20 °C 23.9 °C
Humidity: 93% 49% 74%
Wind Speed: 29km/h 0km/h 8.4km/h
Wind Gust: 29km/h - -
Wind- - SSW
Pressure: 1022.6 hPa 1015.8 hPa -
Precipitation: 0 mm    
Historical Graphs
 
 
Tabular Data for September 21, 2021
Time Temperature Dew Point Pressure Wind Wind Speed Wind Gust Humidity Rainfall Rate (Hourly) solar
00:04 27.2 °C 24.4 °C 1015.8 hPa SSE 6.4 km/h 8 km/h 84% 0 mm 0.00 W/m2
00:09 27.2 °C 24.4 °C 1015.8 hPa SSE 9.7 km/h 9.7 km/h 84% 0 mm 0.00 W/m2
00:14 27.2 °C 24.4 °C 1015.8 hPa SSE 8 km/h 9.7 km/h 84% 0 mm 0.00 W/m2
00:19 27.2 °C 24.4 °C 1015.8 hPa South 9.7 km/h 9.7 km/h 84% 0 mm 0.00 W/m2
00:24 27.2 °C 24.4 °C 1015.8 hPa South 8 km/h 14.5 km/h 84% 0 mm 0.00 W/m2
00:29 27.2 °C 24.4 °C 1015.8 hPa SSE 8 km/h 14.5 km/h 85% 0 mm 0.00 W/m2
00:34 27.2 °C 24.4 °C 1015.8 hPa SSE 6.4 km/h 8 km/h 85% 0 mm 0.00 W/m2
00:39 27.2 °C 24.4 °C 1015.8 hPa SSE 11.3 km/h 11.3 km/h 85% 0 mm 0.00 W/m2
00:44 27.2 °C 24.4 °C 1015.8 hPa SSE 11.3 km/h 11.3 km/h 85% 0 mm 0.00 W/m2
00:49 27.2 °C 24.4 °C 1015.8 hPa SSE 9.7 km/h 9.7 km/h 85% 0 mm 0.00 W/m2
00:54 27.2 °C 24.4 °C 1015.8 hPa SSE 9.7 km/h 9.7 km/h 85% 0 mm 0.00 W/m2
00:59 26.7 °C 24.4 °C 1015.8 hPa SSE 9.7 km/h 9.7 km/h 85% 0 mm 0.00 W/m2
01:04 26.7 °C 24.4 °C 1015.8 hPa SSE 9.7 km/h 11.3 km/h 86% 0 mm 0.00 W/m2
01:09 26.7 °C 24.4 °C 1015.8 hPa SSE 12.9 km/h 14.5 km/h 86% 0 mm 0.00 W/m2
01:14 26.7 °C 24.4 °C 1015.8 hPa South 9.7 km/h 14.5 km/h 86% 0 mm 0.00 W/m2
01:19 26.7 °C 24.4 °C 1015.8 hPa SSE 8 km/h 9.7 km/h 86% 0 mm 0.00 W/m2
01:24 26.7 °C 24.4 °C 1015.8 hPa South 6.4 km/h 6.4 km/h 86% 0 mm 0.00 W/m2
01:29 26.7 °C 24.4 °C 1015.8 hPa SSE 8 km/h 9.7 km/h 86% 0 mm 0.00 W/m2
01:34 26.7 °C 24.4 °C 1015.8 hPa SSE 9.7 km/h 9.7 km/h 86% 0 mm 0.00 W/m2
01:39 26.7 °C 24.4 °C 1015.8 hPa SSE 8 km/h 8 km/h 86% 0 mm 0.00 W/m2
01:44 26.7 °C 24.4 °C 1015.8 hPa SSE 8 km/h 8 km/h 87% 0 mm 0.00 W/m2
01:49 26.7 °C 24.4 °C 1015.8 hPa SSE 8 km/h 9.7 km/h 87% 0 mm 0.00 W/m2
01:54 26.7 °C 24.4 °C 1015.8 hPa SSE 6.4 km/h 8 km/h 87% 0 mm 0.00 W/m2
01:59 26.7 °C 24.4 °C 1015.8 hPa SSE 9.7 km/h 9.7 km/h 87% 0 mm 0.00 W/m2
02:04 26.7 °C 24.4 °C 1015.8 hPa SSE 4.8 km/h 8 km/h 87% 0 mm 0.00 W/m2
02:09 26.7 °C 24.4 °C 1015.8 hPa SSE 4.8 km/h 4.8 km/h 87% 0 mm 0.00 W/m2
02:14 26.7 °C 24.4 °C 1015.8 hPa SSE 4.8 km/h 6.4 km/h 88% 0 mm 0.00 W/m2
02:19 26.7 °C 24.4 °C 1015.8 hPa South 8 km/h 9.7 km/h 88% 0 mm 0.00 W/m2
02:24 26.7 °C 24.4 °C 1015.8 hPa South 6.4 km/h 6.4 km/h 88% 0 mm 0.00 W/m2
02:29 26.7 °C 24.4 °C 1015.8 hPa South 8 km/h 8 km/h 88% 0 mm 0.00 W/m2
02:34 26.7 °C 24.4 °C 1015.8 hPa South 6.4 km/h 6.4 km/h 88% 0 mm 0.00 W/m2
02:39 26.1 °C 24.4 °C 1015.8 hPa SSE 6.4 km/h 6.4 km/h 88% 0 mm 0.00 W/m2
02:44 26.1 °C 24.4 °C 1015.8 hPa SSE 6.4 km/h 6.4 km/h 88% 0 mm 0.00 W/m2
02:49 26.1 °C 24.4 °C 1015.8 hPa SSE 3.2 km/h 3.2 km/h 88% 0 mm 0.00 W/m2
02:54 26.1 °C 24.4 °C 1015.8 hPa SSE 4.8 km/h 6.4 km/h 89% 0 mm 0.00 W/m2
02:59 26.1 °C 24.4 °C 1015.8 hPa SSE 6.4 km/h 6.4 km/h 89% 0 mm 0.00 W/m2
03:04 26.1 °C 24.4 °C 1015.8 hPa SSE 3.2 km/h 3.2 km/h 89% 0 mm 0.00 W/m2
03:09 26.1 °C 24.4 °C 1015.8 hPa SSE 3.2 km/h 3.2 km/h 89% 0 mm 0.00 W/m2
03:14 26.1 °C 23.9 °C 1015.8 hPa SSE 3.2 km/h 3.2 km/h 89% 0 mm 0.00 W/m2
03:19 26.1 °C 23.9 °C 1015.8 hPa SSE 6.4 km/h 6.4 km/h 89% 0 mm 0.00 W/m2
03:24 26.1 °C 23.9 °C 1015.8 hPa SSE 3.2 km/h 6.4 km/h 89% 0 mm 0.00 W/m2
03:29 26.1 °C 23.9 °C 1015.8 hPa SSE 4.8 km/h 4.8 km/h 89% 0 mm 0.00 W/m2
03:34 26.1 °C 24.4 °C 1015.8 hPa SSE 3.2 km/h 4.8 km/h 90% 0 mm 0.00 W/m2
03:37 26.1 °C 24.4 °C 1015.8 hPa SSE 1.6 km/h 3.2 km/h 90% 0 mm 0.00 W/m2
03:44 26.1 °C 23.9 °C 1015.8 hPa SSE 6.4 km/h 6.4 km/h 90% 0 mm 0.00 W/m2
03:49 26.1 °C 23.9 °C 1015.8 hPa SSE 6.4 km/h 6.4 km/h 90% 0 mm 0.00 W/m2
03:54 26.1 °C 23.9 °C 1015.8 hPa SSE 3.2 km/h 6.4 km/h 90% 0 mm 0.00 W/m2
03:59 26.1 °C 23.9 °C 1015.8 hPa SSE 3.2 km/h 4.8 km/h 90% 0 mm 0.00 W/m2
04:04 26.1 °C 23.9 °C 1015.8 hPa SSE 6.4 km/h 8 km/h 90% 0 mm 0.00 W/m2
04:09 26.1 °C 23.9 °C 1015.8 hPa SSE 3.2 km/h 3.2 km/h 90% 0 mm 0.00 W/m2
04:14 25.6 °C 23.9 °C 1015.8 hPa SSE 6.4 km/h 6.4 km/h 90% 0 mm 0.00 W/m2
04:19 25.6 °C 23.9 °C 1015.8 hPa SSE 6.4 km/h 8 km/h 90% 0 mm 0.00 W/m2
04:24 25.6 °C 23.9 °C 1015.8 hPa SSE 3.2 km/h 6.4 km/h 90% 0 mm 0.00 W/m2
04:29 25.6 °C 24.4 °C 1015.8 hPa SSE 3.2 km/h 3.2 km/h 91% 0 mm 0.00 W/m2
04:34 25.6 °C 24.4 °C 1015.8 hPa SSE 1.6 km/h 1.6 km/h 91% 0 mm 0.00 W/m2
04:39 25.6 °C 23.9 °C 1015.8 hPa SSE 3.2 km/h 3.2 km/h 91% 0 mm 0.00 W/m2
04:44 25.6 °C 23.9 °C 1015.8 hPa Calm   1.6 km/h 91% 0 mm 0.00 W/m2
04:49 25.6 °C 23.9 °C 1015.8 hPa SSE 3.2 km/h 3.2 km/h 91% 0 mm 0.00 W/m2
04:54 25.6 °C 23.9 °C 1015.8 hPa Calm   1.6 km/h 91% 0 mm 0.00 W/m2
04:59 25.6 °C 23.9 °C 1015.8 hPa SSE 1.6 km/h 1.6 km/h 91% 0 mm 0.00 W/m2
05:04 25.6 °C 23.9 °C 1015.8 hPa SSE 1.6 km/h 1.6 km/h 91% 0 mm 0.00 W/m2
05:09 25.6 °C 23.9 °C 1015.8 hPa Calm   1.6 km/h 91% 0 mm 0.00 W/m2
05:14 25 °C 23.9 °C 1015.8 hPa Calm     91% 0 mm 0.00 W/m2
05:19 25 °C 23.9 °C 1015.8 hPa SSE 1.6 km/h 1.6 km/h 91% 0 mm 0.00 W/m2
05:24 25 °C 23.9 °C 1015.8 hPa SSE 1.6 km/h 1.6 km/h 92% 0 mm 0.00 W/m2
05:29 25 °C 23.9 °C 1015.8 hPa SSE 1.6 km/h 1.6 km/h 92% 0 mm 0.00 W/m2
05:34 25 °C 23.9 °C 1015.8 hPa SSE 1.6 km/h 1.6 km/h 92% 0 mm 0.00 W/m2
05:39 25 °C 23.9 °C 1015.8 hPa SSE 1.6 km/h 1.6 km/h 92% 0 mm 0.00 W/m2
05:44 25 °C 23.9 °C 1015.8 hPa SSE 1.6 km/h 1.6 km/h 92% 0 mm 0.00 W/m2
05:49 25.6 °C 23.9 °C 1015.8 hPa Calm   1.6 km/h 92% 0 mm 0.00 W/m2
05:54 25.6 °C 23.9 °C 1015.8 hPa SSE 1.6 km/h 1.6 km/h 92% 0 mm 0.00 W/m2
05:59 25.6 °C 23.9 °C 1015.8 hPa Calm     92% 0 mm 0.00 W/m2
06:04 25.6 °C 23.9 °C 1015.8 hPa Calm   1.6 km/h 92% 0 mm 0.00 W/m2
06:09 25.6 °C 23.9 °C 1015.8 hPa SSE 1.6 km/h 1.6 km/h 92% 0 mm 0.00 W/m2
06:14 25.6 °C 23.9 °C 1015.8 hPa Calm   1.6 km/h 92% 0 mm 0.00 W/m2
06:19 25.6 °C 23.9 °C 1015.8 hPa SSE 1.6 km/h 1.6 km/h 92% 0 mm 0.00 W/m2
06:24 25.6 °C 23.9 °C 1015.8 hPa SSE 1.6 km/h 1.6 km/h 92% 0 mm 0.00 W/m2
06:29 25.6 °C 23.9 °C 1015.8 hPa Calm     92% 0 mm 0.00 W/m2
06:34 25 °C 23.9 °C 1015.8 hPa Calm     92% 0 mm 0.00 W/m2
06:39 25 °C 23.9 °C 1015.8 hPa Calm     92% 0 mm 0.00 W/m2
06:44 25 °C 23.9 °C 1015.8 hPa SSE 1.6 km/h 1.6 km/h 92% 0 mm 0.00 W/m2
06:49 25 °C 23.9 °C 1015.8 hPa SSE 1.6 km/h 1.6 km/h 92% 0 mm 0.00 W/m2
06:54 25 °C 23.3 °C 1015.8 hPa SSE 1.6 km/h 3.2 km/h 92% 0 mm 0.00 W/m2
06:59 25 °C 23.3 °C 1015.8 hPa Calm   1.6 km/h 92% 0 mm 0.00 W/m2
07:04 25 °C 23.3 °C 1015.8 hPa Calm     92% 0 mm 0.00 W/m2
07:09 25 °C 23.9 °C 1015.8 hPa Calm     93% 0 mm 0.00 W/m2
07:14 25 °C 23.9 °C 1015.8 hPa Calm     93% 0 mm 0.00 W/m2
07:19 25 °C 23.9 °C 1015.8 hPa SSE 1.6 km/h 1.6 km/h 93% 0 mm 5.00 W/m2
07:24 25 °C 23.9 °C 1015.8 hPa SSE 1.6 km/h 1.6 km/h 93% 0 mm 9.00 W/m2
07:29 25 °C 23.9 °C 1015.8 hPa SSE 1.6 km/h 3.2 km/h 93% 0 mm 12.00 W/m2
07:34 25 °C 23.9 °C 1015.8 hPa Calm   1.6 km/h 93% 0 mm 18.00 W/m2
07:39 25.6 °C 23.9 °C 1015.8 hPa Calm   1.6 km/h 93% 0 mm 21.00 W/m2
07:44 25.6 °C 23.9 °C 1015.8 hPa SSE 3.2 km/h 3.2 km/h 93% 0 mm 25.00 W/m2
07:49 25.6 °C 24.4 °C 1015.8 hPa SSE 1.6 km/h 3.2 km/h 93% 0 mm 30.00 W/m2
07:54 25.6 °C 24.4 °C 1015.8 hPa SSE 1.6 km/h 1.6 km/h 93% 0 mm 35.00 W/m2
07:59 25.6 °C 24.4 °C 1015.8 hPa SSE 1.6 km/h 1.6 km/h 93% 0 mm 49.00 W/m2
08:04 26.1 °C 25 °C 1015.8 hPa SSE 1.6 km/h 1.6 km/h 93% 0 mm 53.00 W/m2
08:09 26.1 °C 25 °C 1015.8 hPa SSE 3.2 km/h 6.4 km/h 93% 0 mm 56.00 W/m2
08:14 26.1 °C 25 °C 1015.8 hPa SSE 6.4 km/h 6.4 km/h 93% 0 mm 72.00 W/m2
08:19 26.7 °C 25 °C 1015.8 hPa SSE 3.2 km/h 4.8 km/h 92% 0 mm 111.00 W/m2
08:24 26.7 °C 25 °C 1019.2 hPa SSE 3.2 km/h 3.2 km/h 92% 0 mm 130.00 W/m2
08:29 26.7 °C 25.6 °C 1019.2 hPa SE 4.8 km/h 4.8 km/h 92% 0 mm 155.00 W/m2
08:34 27.2 °C 25.6 °C 1019.2 hPa SE 3.2 km/h 3.2 km/h 92% 0 mm 174.00 W/m2
08:39 27.2 °C 25.6 °C 1019.2 hPa SE 3.2 km/h 3.2 km/h 92% 0 mm 185.00 W/m2
08:44 27.2 °C 25.6 °C 1019.2 hPa SE 1.6 km/h 3.2 km/h 91% 0 mm 139.00 W/m2
08:49 27.2 °C 25.6 °C 1019.2 hPa SSE 4.8 km/h 4.8 km/h 91% 0 mm 165.00 W/m2
08:54 27.2 °C 25.6 °C 1019.2 hPa South 6.4 km/h 6.4 km/h 90% 0 mm 165.00 W/m2
08:59 27.2 °C 25.6 °C 1019.2 hPa South 3.2 km/h 4.8 km/h 90% 0 mm 153.00 W/m2
09:04 27.2 °C 25.6 °C 1019.2 hPa SSW 4.8 km/h 4.8 km/h 90% 0 mm 114.00 W/m2
09:09 27.8 °C 26.1 °C 1019.2 hPa SSW 4.8 km/h 4.8 km/h 90% 0 mm 355.00 W/m2
09:14 28.3 °C 26.1 °C 1019.2 hPa South 3.2 km/h 4.8 km/h 90% 0 mm 348.00 W/m2
09:19 28.3 °C 26.7 °C 1019.2 hPa SSW 3.2 km/h 4.8 km/h 90% 0 mm 346.00 W/m2
09:24 28.3 °C 26.1 °C 1019.2 hPa SSW 6.4 km/h 6.4 km/h 89% 0 mm 227.00 W/m2
09:29 28.3 °C 26.1 °C 1019.2 hPa SSW 6.4 km/h 6.4 km/h 88% 0 mm 459.00 W/m2
09:34 28.9 °C 26.7 °C 1019.2 hPa South 8 km/h 8 km/h 88% 0 mm 459.00 W/m2
09:39 28.9 °C 26.1 °C 1019.2 hPa SW 12.9 km/h 12.9 km/h 86% 0 mm 149.00 W/m2
09:44 28.3 °C 25.6 °C 1019.2 hPa SW 8 km/h 12.9 km/h 85% 0 mm 104.00 W/m2
09:49 28.3 °C 25.6 °C 1019.2 hPa SW 9.7 km/h 11.3 km/h 85% 0 mm 188.00 W/m2
09:54 28.9 °C 26.7 °C 1019.2 hPa SW 4.8 km/h 9.7 km/h 86% 0 mm 610.00 W/m2
09:59 29.4 °C 26.7 °C 1019.2 hPa South 6.4 km/h 11.3 km/h 86% 0 mm 610.00 W/m2
10:04 29.4 °C 26.1 °C 1019.2 hPa SSW 11.3 km/h 11.3 km/h 83% 0 mm 278.00 W/m2
10:09 29.4 °C 25.6 °C 1019.2 hPa WSW 12.9 km/h 14.5 km/h 81% 0 mm 183.00 W/m2
10:14 28.9 °C 25.6 °C 1019.2 hPa WSW 17.7 km/h 17.7 km/h 81% 0 mm 169.00 W/m2
10:19 29.4 °C 25.6 °C 1019.2 hPa WSW 8 km/h 9.7 km/h 82% 0 mm 169.00 W/m2
10:24 30 °C 26.1 °C 1019.2 hPa SSW 11.3 km/h 11.3 km/h 81% 0 mm 617.00 W/m2
10:29 30 °C 26.7 °C 1019.2 hPa SSW 9.7 km/h 11.3 km/h 81% 0 mm 622.00 W/m2
10:34 30.6 °C 26.7 °C 1019.2 hPa SSW 4.8 km/h 8 km/h 80% 0 mm 666.00 W/m2
10:39 30.6 °C 26.1 °C 1019.2 hPa SSW 4.8 km/h 6.4 km/h 79% 0 mm 666.00 W/m2
10:44 30.6 °C 26.1 °C 1019.2 hPa WSW 11.3 km/h 12.9 km/h 78% 0 mm 705.00 W/m2
10:49 31.1 °C 26.7 °C 1019.2 hPa SSW 11.3 km/h 12.9 km/h 76% 0 mm 705.00 W/m2
10:54 31.1 °C 26.1 °C 1019.2 hPa SW 11.3 km/h 12.9 km/h 75% 0 mm 766.00 W/m2
10:59 31.7 °C 26.7 °C 1019.2 hPa SSW 8 km/h 11.3 km/h 74% 0 mm 819.00 W/m2
11:04 31.7 °C 26.7 °C 1019.2 hPa SW 17.7 km/h 20.9 km/h 74% 0 mm 844.00 W/m2
11:09 31.1 °C 26.1 °C 1019.2 hPa WSW 14.5 km/h 20.9 km/h 75% 0 mm 165.00 W/m2
11:14 30.6 °C 25.6 °C 1019.2 hPa WSW 9.7 km/h 12.9 km/h 77% 0 mm 744.00 W/m2
11:19 30.6 °C 26.1 °C 1019.2 hPa WSW 11.3 km/h 12.9 km/h 76% 0 mm 733.00 W/m2
11:24 31.1 °C 26.1 °C 1019.2 hPa SW 12.9 km/h 12.9 km/h 76% 0 mm 733.00 W/m2
11:29 31.1 °C 25.6 °C 1019.2 hPa WSW 11.3 km/h 12.9 km/h 72% 0 mm 737.00 W/m2
11:34 31.7 °C 26.1 °C 1019.2 hPa SW 11.3 km/h 12.9 km/h 73% 0 mm 763.00 W/m2
11:39 31.7 °C 25.6 °C 1019.2 hPa SW 12.9 km/h 12.9 km/h 71% 0 mm 810.00 W/m2
11:44 31.7 °C 25.6 °C 1019.2 hPa SW 14.5 km/h 14.5 km/h 71% 0 mm 833.00 W/m2
11:49 31.7 °C 26.1 °C 1019.2 hPa SSW 8 km/h 8 km/h 72% 0 mm 882.00 W/m2
11:54 32.2 °C 26.1 °C 1019.2 hPa WSW 9.7 km/h 12.9 km/h 71% 0 mm 912.00 W/m2
11:59 31.7 °C 25.6 °C 1019.2 hPa West 11.3 km/h 12.9 km/h 72% 0 mm 244.00 W/m2
12:04 31.7 °C 25.6 °C 1019.2 hPa WSW 12.9 km/h 12.9 km/h 72% 0 mm 896.00 W/m2
12:09 31.7 °C 25.6 °C 1019.2 hPa West 11.3 km/h 12.9 km/h 72% 0 mm 858.00 W/m2
12:14 31.7 °C 26.1 °C 1019.2 hPa West 11.3 km/h 11.3 km/h 73% 0 mm 911.00 W/m2
12:19 31.7 °C 26.1 °C 1019.2 hPa West 8 km/h 8 km/h 72% 0 mm 911.00 W/m2
12:24 31.7 °C 25.6 °C 1019.2 hPa West 11.3 km/h 14.5 km/h 70% 0 mm 837.00 W/m2
12:29 31.7 °C 25.6 °C 1019.2 hPa West 12.9 km/h 12.9 km/h 69% 0 mm 854.00 W/m2
12:34 32.2 °C 25.6 °C 1019.2 hPa West 11.3 km/h 12.9 km/h 69% 0 mm 854.00 W/m2
12:39 32.2 °C 25.6 °C 1019.2 hPa West 11.3 km/h 12.9 km/h 68% 0 mm 860.00 W/m2
12:44 32.8 °C 25.6 °C 1019.2 hPa WSW 11.3 km/h 12.9 km/h 68% 0 mm 942.00 W/m2
12:49 32.8 °C 25 °C 1019.2 hPa WNW 6.4 km/h 11.3 km/h 65% 0 mm 942.00 W/m2
12:54 32.8 °C 25 °C 1019.2 hPa WSW 8 km/h 11.3 km/h 65% 0 mm 220.00 W/m2
12:59 32.8 °C 25 °C 1019.2 hPa WSW 8 km/h 11.3 km/h 65% 0 mm 983.00 W/m2
13:04 32.8 °C 25.6 °C 1019.2 hPa West 9.7 km/h 9.7 km/h 65% 0 mm 983.00 W/m2
13:09 33.3 °C 25 °C 1019.2 hPa NW 12.9 km/h 14.5 km/h 63% 0 mm 962.00 W/m2
13:14 33.3 °C 25.6 °C 1019.2 hPa West 12.9 km/h 14.5 km/h 63% 0 mm 993.00 W/m2
13:19 33.3 °C 25.6 °C 1019.2 hPa West 9.7 km/h 12.9 km/h 63% 0 mm 972.00 W/m2
13:24 33.3 °C 25.6 °C 1019.2 hPa NW 14.5 km/h 14.5 km/h 63% 0 mm 874.00 W/m2
13:29 33.3 °C 25.6 °C 1019.2 hPa West 12.9 km/h 14.5 km/h 63% 0 mm 882.00 W/m2
13:34 33.3 °C 25.6 °C 1019.2 hPa WSW 8 km/h 11.3 km/h 63% 0 mm 870.00 W/m2
13:39 33.3 °C 24.4 °C 1019.2 hPa West 11.3 km/h 11.3 km/h 60% 0 mm 853.00 W/m2
13:44 33.3 °C 25 °C 1019.2 hPa WSW 8 km/h 9.7 km/h 61% 0 mm 851.00 W/m2
13:49 33.9 °C 25.6 °C 1019.2 hPa WSW 12.9 km/h 14.5 km/h 62% 0 mm 856.00 W/m2
13:54 33.9 °C 25 °C 1019.2 hPa West 8 km/h 9.7 km/h 61% 0 mm 856.00 W/m2
13:59 33.9 °C 24.4 °C 1019.2 hPa West 12.9 km/h 12.9 km/h 59% 0 mm 877.00 W/m2
14:04 33.9 °C 25 °C 1019.2 hPa West 11.3 km/h 11.3 km/h 61% 0 mm 856.00 W/m2
14:09 33.9 °C 25 °C 1019.2 hPa West 11.3 km/h 11.3 km/h 61% 0 mm 838.00 W/m2
14:14 33.9 °C 24.4 °C 1019.2 hPa WSW 14.5 km/h 14.5 km/h 58% 0 mm 846.00 W/m2
14:19 33.9 °C 24.4 °C 1019.2 hPa West 11.3 km/h 11.3 km/h 58% 0 mm 819.00 W/m2
14:24 33.9 °C 23.9 °C 1019.2 hPa WNW 11.3 km/h 11.3 km/h 57% 0 mm 817.00 W/m2
14:29 33.9 °C 24.4 °C 1019.2 hPa WSW 9.7 km/h 11.3 km/h 57% 0 mm 816.00 W/m2
14:34 34.4 °C 24.4 °C 1019.2 hPa WSW 6.4 km/h 12.9 km/h 56% 0 mm 795.00 W/m2
14:39 34.4 °C 23.9 °C 1019.2 hPa WSW 11.3 km/h 12.9 km/h 55% 0 mm 800.00 W/m2
14:44 34.4 °C 23.9 °C 1019.2 hPa WSW 9.7 km/h 9.7 km/h 55% 0 mm 793.00 W/m2
14:49 35 °C 23.3 °C 1019.2 hPa WNW 8 km/h 8 km/h 52% 0 mm 798.00 W/m2
14:54 35 °C 23.3 °C 1019.2 hPa WSW 12.9 km/h 12.9 km/h 53% 0 mm 809.00 W/m2
14:59 34.4 °C 24.4 °C 1019.2 hPa SW 9.7 km/h 12.9 km/h 57% 0 mm 810.00 W/m2
15:04 35 °C 25 °C 1019.2 hPa SW 12.9 km/h 19.3 km/h 57% 0 mm 807.00 W/m2
15:09 35 °C 23.9 °C 1019.2 hPa WSW 11.3 km/h 11.3 km/h 53% 0 mm 798.00 W/m2
15:14 35 °C 23.9 °C 1019.2 hPa WSW 9.7 km/h 11.3 km/h 53% 0 mm 840.00 W/m2
15:19 35 °C 24.4 °C 1015.8 hPa WSW 6.4 km/h 11.3 km/h 55% 0 mm 784.00 W/m2
15:24 35 °C 23.9 °C 1015.8 hPa WNW 11.3 km/h 12.9 km/h 53% 0 mm 835.00 W/m2
15:29 35 °C 23.9 °C 1015.8 hPa West 14.5 km/h 14.5 km/h 53% 0 mm 754.00 W/m2
15:34 35 °C 23.9 °C 1015.8 hPa WSW 11.3 km/h 11.3 km/h 53% 0 mm 715.00 W/m2
15:39 35 °C 23.3 °C 1015.8 hPa West 4.8 km/h 8 km/h 52% 0 mm 724.00 W/m2
15:44 35 °C 23.9 °C 1015.8 hPa WSW 3.2 km/h 3.2 km/h 53% 0 mm 728.00 W/m2
15:49 35 °C 23.9 °C 1015.8 hPa SW 4.8 km/h 8 km/h 53% 0 mm 682.00 W/m2
15:54 35.6 °C 23.3 °C 1015.8 hPa NNW 8 km/h 8 km/h 50% 0 mm 649.00 W/m2
15:59 35.6 °C 23.3 °C 1015.8 hPa North 9.7 km/h 9.7 km/h 49% 0 mm 631.00 W/m2
16:04 35.6 °C 23.9 °C 1015.8 hPa NNW 9.7 km/h 12.9 km/h 50% 0 mm 617.00 W/m2
16:09 35.6 °C 23.3 °C 1015.8 hPa NNW 6.4 km/h 6.4 km/h 49% 0 mm 601.00 W/m2
16:14 35 °C 23.9 °C 1015.8 hPa NW 4.8 km/h 6.4 km/h 52% 0 mm 582.00 W/m2
16:19 35 °C 23.9 °C 1015.8 hPa West 6.4 km/h 6.4 km/h 53% 0 mm 577.00 W/m2
16:24 35 °C 23.9 °C 1015.8 hPa WNW 9.7 km/h 12.9 km/h 53% 0 mm 552.00 W/m2
16:29 35.6 °C 23.9 °C 1015.8 hPa NNW 12.9 km/h 12.9 km/h 51% 0 mm 541.00 W/m2
16:34 35.6 °C 23.9 °C 1015.8 hPa North 9.7 km/h 9.7 km/h 51% 0 mm 524.00 W/m2
16:39 35 °C 23.3 °C 1015.8 hPa NNW 12.9 km/h 12.9 km/h 50% 0 mm 520.00 W/m2
16:44 35 °C 23.3 °C 1015.8 hPa North 8 km/h 12.9 km/h 50% 0 mm 504.00 W/m2
16:49 35.6 °C 23.3 °C 1015.8 hPa North 6.4 km/h 8 km/h 50% 0 mm 464.00 W/m2
16:54 35 °C 23.3 °C 1015.8 hPa NNE 6.4 km/h 8 km/h 51% 0 mm 441.00 W/m2
16:59 35 °C 23.9 °C 1015.8 hPa WNW 6.4 km/h 6.4 km/h 52% 0 mm 434.00 W/m2
17:04 35 °C 23.9 °C 1015.8 hPa West 11.3 km/h 11.3 km/h 52% 0 mm 408.00 W/m2
17:09 35 °C 23.3 °C 1015.8 hPa West 9.7 km/h 9.7 km/h 52% 0 mm 390.00 W/m2
17:14 35 °C 23.3 °C 1015.8 hPa WNW 6.4 km/h 9.7 km/h 51% 0 mm 374.00 W/m2
17:19 35 °C 23.9 °C 1015.8 hPa West 4.8 km/h 4.8 km/h 52% 0 mm 357.00 W/m2
17:24 35 °C 23.9 °C 1015.8 hPa WSW 11.3 km/h 12.9 km/h 52% 0 mm 339.00 W/m2
17:29 35 °C 23.3 °C 1015.8 hPa NW 9.7 km/h 12.9 km/h 51% 0 mm 316.00 W/m2
17:34 35 °C 23.3 °C 1015.8 hPa WNW 4.8 km/h 6.4 km/h 51% 0 mm 302.00 W/m2
17:39 35 °C 23.3 °C 1015.8 hPa WSW 9.7 km/h 9.7 km/h 51% 0 mm 274.00 W/m2
17:44 35 °C 23.3 °C 1015.8 hPa NW 11.3 km/h 11.3 km/h 51% 0 mm 272.00 W/m2
17:49 35 °C 23.3 °C 1015.8 hPa NW 6.4 km/h 11.3 km/h 51% 0 mm 244.00 W/m2
17:54 35 °C 23.3 °C 1015.8 hPa NNW 4.8 km/h 9.7 km/h 52% 0 mm 232.00 W/m2
17:59 35 °C 23.3 °C 1015.8 hPa West 9.7 km/h 9.7 km/h 52% 0 mm 216.00 W/m2
18:04 34.4 °C 22.8 °C 1015.8 hPa WSW 9.7 km/h 9.7 km/h 52% 0 mm 195.00 W/m2
18:09 34.4 °C 23.3 °C 1015.8 hPa West 6.4 km/h 6.4 km/h 53% 0 mm 88.00 W/m2
18:14 33.9 °C 23.3 °C 1015.8 hPa WNW 6.4 km/h 6.4 km/h 53% 0 mm 54.00 W/m2
18:19 33.9 °C 22.8 °C 1015.8 hPa West 4.8 km/h 6.4 km/h 53% 0 mm 37.00 W/m2
18:24 33.9 °C 22.8 °C 1015.8 hPa WSW 4.8 km/h 6.4 km/h 54% 0 mm 74.00 W/m2
18:29 33.3 °C 22.8 °C 1015.8 hPa WSW 1.6 km/h 6.4 km/h 54% 0 mm 37.00 W/m2
18:34 33.3 °C 22.8 °C 1015.8 hPa WSW 3.2 km/h 3.2 km/h 54% 0 mm 35.00 W/m2
18:39 33.3 °C 22.8 °C 1015.8 hPa WSW 3.2 km/h 4.8 km/h 55% 0 mm 23.00 W/m2
18:44 33.3 °C 23.3 °C 1015.8 hPa WSW 3.2 km/h 3.2 km/h 56% 0 mm 21.00 W/m2
18:49 33.3 °C 23.3 °C 1015.8 hPa WSW 3.2 km/h 3.2 km/h 56% 0 mm 30.00 W/m2
18:54 33.3 °C 23.3 °C 1015.8 hPa WSW 4.8 km/h 4.8 km/h 57% 0 mm 35.00 W/m2
18:59 33.3 °C 23.3 °C 1015.8 hPa WSW 3.2 km/h 4.8 km/h 57% 0 mm 35.00 W/m2
19:04 33.3 °C 23.3 °C 1015.8 hPa WSW 3.2 km/h 3.2 km/h 57% 0 mm 28.00 W/m2
19:09 32.8 °C 23.3 °C 1015.8 hPa WSW 3.2 km/h 3.2 km/h 57% 0 mm 26.00 W/m2
19:14 32.8 °C 23.3 °C 1015.8 hPa WSW 3.2 km/h 4.8 km/h 58% 0 mm 12.00 W/m2
19:19 32.8 °C 23.3 °C 1015.8 hPa NNW 12.9 km/h 12.9 km/h 58% 0 mm 5.00 W/m2
19:24 32.8 °C 23.9 °C 1015.8 hPa North 22.5 km/h 24.1 km/h 61% 0 mm 0.00 W/m2
19:29 32.2 °C 23.9 °C 1015.8 hPa NNE 25.7 km/h 29 km/h 62% 0 mm 0.00 W/m2
19:34 31.7 °C 23.3 °C 1019.2 hPa NNE 19.3 km/h 20.9 km/h 63% 0 mm 0.00 W/m2
19:39 31.1 °C 23.3 °C 1019.2 hPa NNE 22.5 km/h 22.5 km/h 65% 0 mm 0.00 W/m2
19:44 30.6 °C 23.3 °C 1019.2 hPa NNE 11.3 km/h 11.3 km/h 67% 0 mm 0.00 W/m2
19:49 30 °C 23.3 °C 1019.2 hPa NNE 17.7 km/h 17.7 km/h 69% 0 mm 0.00 W/m2
19:54 29.4 °C 23.3 °C 1019.2 hPa NE 11.3 km/h 11.3 km/h 69% 0 mm 0.00 W/m2
19:59 29.4 °C 23.3 °C 1019.2 hPa ENE 6.4 km/h 6.4 km/h 70% 0 mm 0.00 W/m2
20:04 28.9 °C 22.8 °C 1019.2 hPa ENE 4.8 km/h 9.7 km/h 71% 0 mm 0.00 W/m2
20:09 28.9 °C 22.8 °C 1019.2 hPa East 4.8 km/h 4.8 km/h 71% 0 mm 0.00 W/m2
20:14 28.3 °C 22.8 °C 1019.2 hPa ENE 3.2 km/h 4.8 km/h 72% 0 mm 0.00 W/m2
20:19 28.3 °C 22.8 °C 1019.2 hPa ENE 3.2 km/h 3.2 km/h 72% 0 mm 0.00 W/m2
20:24 28.3 °C 22.8 °C 1019.2 hPa ENE 1.6 km/h 3.2 km/h 73% 0 mm 0.00 W/m2
20:29 28.3 °C 22.8 °C 1019.2 hPa ENE 1.6 km/h 1.6 km/h 73% 0 mm 0.00 W/m2
20:34 28.3 °C 22.8 °C 1019.2 hPa ENE 3.2 km/h 3.2 km/h 73% 0 mm 0.00 W/m2
20:39 28.3 °C 22.8 °C 1019.2 hPa ENE 1.6 km/h 3.2 km/h 73% 0 mm 0.00 W/m2
20:44 27.8 °C 22.8 °C 1019.2 hPa ENE 1.6 km/h 1.6 km/h 73% 0 mm 0.00 W/m2
20:49 27.8 °C 22.8 °C 1019.2 hPa ENE 1.6 km/h 1.6 km/h 73% 0 mm 0.00 W/m2
20:54 28.3 °C 22.8 °C 1019.2 hPa NE 4.8 km/h 6.4 km/h 74% 0 mm 0.00 W/m2
20:59 28.9 °C 22.8 °C 1019.2 hPa NNW 14.5 km/h 14.5 km/h 73% 0 mm 0.00 W/m2
21:04 28.9 °C 22.8 °C 1019.2 hPa NNW 9.7 km/h 12.9 km/h 69% 0 mm 0.00 W/m2
21:09 29.4 °C 22.2 °C 1019.2 hPa NNW 8 km/h 12.9 km/h 67% 0 mm 0.00 W/m2
21:14 29.4 °C 22.2 °C 1019.2 hPa NNW 8 km/h 9.7 km/h 66% 0 mm 0.00 W/m2
21:19 29.4 °C 22.2 °C 1019.2 hPa NNW 6.4 km/h 8 km/h 66% 0 mm 0.00 W/m2
21:24 29.4 °C 21.7 °C 1019.2 hPa NNW 12.9 km/h 12.9 km/h 65% 0 mm 0.00 W/m2
21:29 29.4 °C 22.2 °C 1019.2 hPa NNW 19.3 km/h 19.3 km/h 65% 0 mm 0.00 W/m2
21:34 29.4 °C 21.7 °C 1019.2 hPa NNW 17.7 km/h 20.9 km/h 64% 0 mm 0.00 W/m2
21:39 29.4 °C 21.7 °C 1019.2 hPa NNW 14.5 km/h 20.9 km/h 64% 0 mm 0.00 W/m2
21:44 28.9 °C 21.7 °C 1019.2 hPa NNW 16.1 km/h 16.1 km/h 65% 0 mm 0.00 W/m2
21:49 28.9 °C 21.7 °C 1019.2 hPa NNW 14.5 km/h 16.1 km/h 65% 0 mm 0.00 W/m2
21:54 28.9 °C 21.7 °C 1019.2 hPa NNW 11.3 km/h 16.1 km/h 65% 0 mm 0.00 W/m2
21:59 28.9 °C 21.7 °C 1019.2 hPa North 22.5 km/h 22.5 km/h 65% 0 mm 0.00 W/m2
22:04 28.9 °C 21.7 °C 1019.2 hPa North 19.3 km/h 20.9 km/h 65% 0 mm 0.00 W/m2
22:09 28.9 °C 21.7 °C 1019.2 hPa North 24.1 km/h 24.1 km/h 65% 0 mm 0.00 W/m2
22:14 28.9 °C 21.1 °C 1019.2 hPa North 17.7 km/h 24.1 km/h 64% 0 mm 0.00 W/m2
22:19 28.9 °C 21.1 °C 1019.2 hPa NNW 20.9 km/h 20.9 km/h 64% 0 mm 0.00 W/m2
22:24 28.9 °C 21.1 °C 1019.2 hPa NNW 19.3 km/h 20.9 km/h 64% 0 mm 0.00 W/m2
22:29 28.9 °C 21.1 °C 1019.2 hPa NNW 20.9 km/h 22.5 km/h 64% 0 mm 0.00 W/m2
22:34 28.9 °C 21.1 °C 1019.2 hPa North 20.9 km/h 24.1 km/h 64% 0 mm 0.00 W/m2
22:39 28.3 °C 21.1 °C 1019.2 hPa North 16.1 km/h 19.3 km/h 64% 0 mm 0.00 W/m2
22:44 28.3 °C 20.6 °C 1019.2 hPa North 16.1 km/h 17.7 km/h 64% 0 mm 0.00 W/m2
22:49 28.3 °C 21.1 °C 1019.2 hPa North 29 km/h 29 km/h 65% 0 mm 0.00 W/m2
22:54 28.3 °C 20.6 °C 1019.2 hPa North 25.7 km/h 29 km/h 64% 0 mm 0.00 W/m2
22:59 28.3 °C 20.6 °C 1019.2 hPa North 25.7 km/h 29 km/h 64% 0 mm 0.00 W/m2
23:04 28.3 °C 20.6 °C 1019.2 hPa North 27.4 km/h 27.4 km/h 64% 0 mm 0.00 W/m2
23:09 28.3 °C 20.6 °C 1019.2 hPa North 16.1 km/h 27.4 km/h 64% 0 mm 0.00 W/m2
23:14 28.3 °C 20.6 °C 1019.2 hPa North 19.3 km/h 25.7 km/h 64% 0 mm 0.00 W/m2
23:19 27.8 °C 20.6 °C 1019.2 hPa North 20.9 km/h 25.7 km/h 65% 0 mm 0.00 W/m2
23:24 27.8 °C 20.6 °C 1022.6 hPa North 20.9 km/h 27.4 km/h 65% 0 mm 0.00 W/m2
23:29 27.8 °C 20.6 °C 1022.6 hPa North 22.5 km/h 22.5 km/h 64% 0 mm 0.00 W/m2
23:34 27.8 °C 20.6 °C 1022.6 hPa North 22.5 km/h 25.7 km/h 64% 0 mm 0.00 W/m2
23:39 27.8 °C 20.6 °C 1022.6 hPa North 19.3 km/h 22.5 km/h 64% 0 mm 0.00 W/m2
23:44 27.8 °C 20.6 °C 1022.6 hPa NNE 20.9 km/h 20.9 km/h 64% 0 mm 0.00 W/m2
23:49 27.8 °C 20 °C 1022.6 hPa North 24.1 km/h 25.7 km/h 64% 0 mm 0.00 W/m2
23:54 27.8 °C 20 °C 1019.2 hPa North 20.9 km/h 20.9 km/h 64% 0 mm 0.00 W/m2
23:59 27.2 °C 20 °C 1019.2 hPa North 20.9 km/h 22.5 km/h 64% 0 mm 0.00 W/m2
Villages of Bridgestone, Spring, TX USA
Compliments of Weather Underground - 4 mb